createdAt,value
2018-07-07T00:00:45.460Z,100804.64
2018-07-07T00:03:13.079Z,100801.23
2018-07-07T00:05:40.694Z,100804.86
2018-07-07T00:08:08.299Z,100815.09
2018-07-07T00:10:35.927Z,100811.55
2018-07-07T00:13:03.553Z,100812.41
2018-07-07T00:15:31.192Z,100809.83
2018-07-07T00:17:58.784Z,100810.21
2018-07-07T00:20:26.386Z,100810.34
2018-07-07T00:22:53.977Z,100812.50
2018-07-07T00:25:21.949Z,100811.77
2018-07-07T00:27:50.204Z,100806.42
2018-07-07T00:30:18.390Z,100799.56
2018-07-07T00:32:46.050Z,100808.84
2018-07-07T00:35:13.713Z,100808.36
2018-07-07T00:37:41.364Z,100804.19
2018-07-07T00:40:10.019Z,100818.20
2018-07-07T00:42:38.130Z,100818.30
2018-07-07T00:45:05.763Z,100820.63
2018-07-07T00:47:33.365Z,100820.98
2018-07-07T00:50:01.152Z,100814.13
2018-07-07T00:52:28.840Z,100818.30
2018-07-07T00:54:56.556Z,100811.99
2018-07-07T00:57:24.475Z,100821.75
2018-07-07T00:59:52.354Z,100816.39
2018-07-07T01:02:21.425Z,100818.69
2018-07-07T01:04:50.749Z,100821.36
2018-07-07T01:07:18.469Z,100823.66
2018-07-07T01:09:46.159Z,100817.73
2018-07-07T01:12:13.782Z,100816.39
2018-07-07T01:14:41.451Z,100818.08
2018-07-07T01:17:09.059Z,100815.05
2018-07-07T01:19:36.655Z,100808.36
2018-07-07T01:22:06.226Z,100801.60
2018-07-07T01:24:33.800Z,100810.75
2018-07-07T01:27:01.468Z,100810.27
2018-07-07T01:29:29.052Z,100809.16
2018-07-07T01:31:56.680Z,100817.95
2018-07-07T01:34:24.314Z,100814.13
2018-07-07T01:36:51.905Z,100813.17
2018-07-07T01:39:19.482Z,100817.02
2018-07-07T01:41:47.094Z,100817.02
2018-07-07T01:44:14.670Z,100821.55
2018-07-07T01:46:42.333Z,100819.34
2018-07-07T01:49:09.926Z,100824.70
2018-07-07T01:51:37.512Z,100822.88
2018-07-07T01:54:05.166Z,100826.26
2018-07-07T01:56:32.779Z,100828.07
2018-07-07T01:59:00.448Z,100825.75
2018-07-07T02:01:28.035Z,100817.24
2018-07-07T02:03:55.693Z,100816.55
2018-07-07T02:06:23.263Z,100814.73
2018-07-07T02:08:50.845Z,100814.86
2018-07-07T02:11:18.497Z,100815.91
2018-07-07T02:13:46.092Z,100817.37
2018-07-07T02:16:13.700Z,100821.86
2018-07-07T02:18:41.314Z,100819.87
2018-07-07T02:21:08.891Z,100820.73
2018-07-07T02:23:36.478Z,100828.29
2018-07-07T02:26:04.249Z,100830.14
2018-07-07T02:28:31.907Z,100834.55
2018-07-07T02:30:59.514Z,100834.42
2018-07-07T02:33:27.126Z,100838.55
2018-07-07T02:35:54.728Z,100838.30
2018-07-07T02:38:22.310Z,100830.27
2018-07-07T02:40:49.887Z,100833.47
2018-07-07T02:43:17.996Z,100838.13
2018-07-07T02:45:45.629Z,100843.73
2018-07-07T02:48:13.253Z,100843.37
2018-07-07T02:50:40.823Z,100847.10
2018-07-07T02:53:08.473Z,100841.75
2018-07-07T02:55:36.064Z,100843.47
2018-07-07T02:58:03.735Z,100851.28
2018-07-07T03:00:31.382Z,100851.06
2018-07-07T03:02:58.957Z,100852.31
2018-07-07T03:05:26.528Z,100857.53
2018-07-07T03:07:54.167Z,100838.54
2018-07-07T03:10:21.732Z,100846.55
2018-07-07T03:12:49.286Z,100855.83
2018-07-07T03:15:21.356Z,100854.65
2018-07-07T03:17:49.099Z,100858.80
2018-07-07T03:20:16.715Z,100861.57
2018-07-07T03:22:44.315Z,100867.09
2018-07-07T03:25:12.142Z,100863.55
2018-07-07T03:27:39.967Z,100857.55
2018-07-07T03:30:08.049Z,100865.20
2018-07-07T03:32:35.849Z,100876.43
2018-07-07T03:35:03.565Z,100863.45
2018-07-07T03:37:31.184Z,100860.80
2018-07-07T03:39:58.771Z,100862.64
2018-07-07T03:42:26.345Z,100871.56
2018-07-07T03:44:54.175Z,100872.74
2018-07-07T03:47:21.781Z,100877.02
2018-07-07T03:49:49.357Z,100869.50
2018-07-07T03:52:16.966Z,100877.02
2018-07-07T03:54:44.603Z,100869.20
2018-07-07T03:57:12.192Z,100883.56
2018-07-07T03:59:39.788Z,100874.32
2018-07-07T04:02:08.249Z,100875.56
2018-07-07T04:04:37.023Z,100882.80
2018-07-07T04:07:05.015Z,100868.19
2018-07-07T04:09:32.635Z,100874.66
2018-07-07T04:12:00.223Z,100874.52
2018-07-07T04:14:27.815Z,100881.73
2018-07-07T04:16:55.462Z,100869.91
2018-07-07T04:19:23.072Z,100870.29
2018-07-07T04:21:50.660Z,100862.27
2018-07-07T04:24:18.299Z,100866.56
2018-07-07T04:26:45.872Z,100856.22
2018-07-07T04:29:13.452Z,100864.03
2018-07-07T04:31:41.048Z,100859.25
2018-07-07T04:34:08.631Z,100860.81
2018-07-07T04:36:36.215Z,100867.39
2018-07-07T04:39:04.363Z,100867.44
2018-07-07T04:41:31.938Z,100860.55
2018-07-07T04:43:59.540Z,100854.45
2018-07-07T04:46:27.188Z,100863.93
2018-07-07T04:48:54.744Z,100862.78
2018-07-07T04:51:22.327Z,100853.70
2018-07-07T04:53:49.954Z,100853.55
2018-07-07T04:56:17.570Z,100854.61
2018-07-07T04:58:45.173Z,100859.67
2018-07-07T05:01:12.811Z,100857.75
2018-07-07T05:03:40.390Z,100859.03
2018-07-07T05:06:08.051Z,100857.97
2018-07-07T05:08:35.651Z,100858.98
2018-07-07T05:11:03.292Z,100866.58
2018-07-07T05:13:30.852Z,100869.52
2018-07-07T05:15:58.498Z,100868.33
2018-07-07T05:18:26.101Z,100876.93
2018-07-07T05:20:53.689Z,100884.17
2018-07-07T05:23:21.315Z,100875.09
2018-07-07T05:25:48.867Z,100884.16
2018-07-07T05:28:16.507Z,100883.03
2018-07-07T05:30:44.127Z,100880.23
2018-07-07T05:33:11.724Z,100875.30
2018-07-07T05:35:39.383Z,100872.02
2018-07-07T05:38:06.995Z,100868.02
2018-07-07T05:40:34.585Z,100868.20
2018-07-07T05:43:02.259Z,100873.09
2018-07-07T05:45:29.844Z,100870.53
2018-07-07T05:47:57.411Z,100875.64
2018-07-07T05:50:25.052Z,100871.70
2018-07-07T05:52:52.665Z,100877.84
2018-07-07T05:55:20.255Z,100874.11
2018-07-07T05:57:47.909Z,100876.54
2018-07-07T06:00:16.007Z,100872.69
2018-07-07T06:02:43.679Z,100861.98
2018-07-07T06:05:11.297Z,100860.48
2018-07-07T06:07:39.119Z,100872.72
2018-07-07T06:10:06.931Z,100861.72
2018-07-07T06:12:34.555Z,100870.20
2018-07-07T06:15:02.180Z,100864.99
2018-07-07T06:17:29.852Z,100876.02
2018-07-07T06:19:57.403Z,100866.97
2018-07-07T06:22:25.032Z,100861.36
2018-07-07T06:24:52.616Z,100865.09
2018-07-07T06:27:20.216Z,100865.66
2018-07-07T06:29:47.837Z,100867.72
2018-07-07T06:32:15.439Z,100867.24
2018-07-07T06:34:43.077Z,100875.12
2018-07-07T06:37:10.762Z,100879.77
2018-07-07T06:39:38.284Z,100877.88
2018-07-07T06:42:05.928Z,100882.37
2018-07-07T06:44:33.483Z,100878.38
2018-07-07T06:47:01.071Z,100881.70
2018-07-07T06:49:28.704Z,100874.98
2018-07-07T06:51:56.274Z,100877.70
2018-07-07T06:54:23.900Z,100874.75
2018-07-07T06:56:51.560Z,100869.48
2018-07-07T06:59:19.171Z,100867.10
2018-07-07T07:01:46.826Z,100872.09
2018-07-07T07:04:14.427Z,100868.20
2018-07-07T07:06:42.053Z,100868.47
2018-07-07T07:09:10.377Z,100862.87
2018-07-07T07:11:38.124Z,100871.84
2018-07-07T07:14:05.938Z,100869.55
2018-07-07T07:16:33.524Z,100867.55
2018-07-07T07:19:01.119Z,100859.77
2018-07-07T07:21:28.791Z,100862.79
2018-07-07T07:24:03.180Z,100867.13
2018-07-07T07:26:30.765Z,100859.05
2018-07-07T07:28:58.403Z,100865.61
2018-07-07T07:31:26.404Z,100856.74
2018-07-07T07:33:54.015Z,100857.05
2018-07-07T07:36:33.431Z,100861.83
2018-07-07T07:39:00.983Z,100863.83
2018-07-07T07:41:28.623Z,100865.67
2018-07-07T07:43:56.526Z,100865.47
2018-07-07T07:46:24.131Z,100869.49
2018-07-07T07:48:51.724Z,100865.02
2018-07-07T07:51:19.386Z,100866.53
2018-07-07T07:53:47.015Z,100863.08
2018-07-07T07:56:14.612Z,100866.49
2018-07-07T07:58:42.296Z,100865.07
2018-07-07T08:01:09.881Z,100863.86
2018-07-07T08:03:37.443Z,100863.38
2018-07-07T08:06:05.084Z,100851.08
2018-07-07T08:08:32.681Z,100863.94
2018-07-07T08:11:00.262Z,100858.33
2018-07-07T08:13:27.841Z,100856.14
2018-07-07T08:15:55.365Z,100860.66
2018-07-07T08:18:22.988Z,100858.96
2018-07-07T08:20:50.508Z,100857.40
2018-07-07T08:23:18.061Z,100864.77
2018-07-07T08:25:45.639Z,100865.41
2018-07-07T08:28:13.177Z,100865.66
2018-07-07T08:30:40.818Z,100868.22
2018-07-07T08:33:08.466Z,100861.18
2018-07-07T08:35:36.019Z,100859.02
2018-07-07T08:38:03.598Z,100862.29
2018-07-07T08:40:31.147Z,100860.61
2018-07-07T08:42:58.906Z,100851.05
2018-07-07T08:45:26.472Z,100860.41
2018-07-07T08:47:54.047Z,100870.62
2018-07-07T08:50:21.700Z,100869.56
2018-07-07T08:52:49.248Z,100869.17
2018-07-07T08:55:16.819Z,100864.46
2018-07-07T08:57:44.390Z,100869.33
2018-07-07T09:00:16.184Z,100863.97
2018-07-07T09:02:43.775Z,100875.20
2018-07-07T09:05:11.399Z,100863.44
2018-07-07T09:07:38.956Z,100875.28
2018-07-07T09:10:06.564Z,100867.31
2018-07-07T09:12:34.117Z,100865.14
2018-07-07T09:15:01.715Z,100864.30
2018-07-07T09:17:29.302Z,100866.48
2018-07-07T09:19:56.880Z,100865.30
2018-07-07T09:22:24.496Z,100862.16
2018-07-07T09:24:52.051Z,100862.20
2018-07-07T09:27:19.639Z,100859.79
2018-07-07T09:29:47.196Z,100855.60
2018-07-07T09:32:14.779Z,100862.01
2018-07-07T09:34:42.366Z,100860.80
2018-07-07T09:37:10.016Z,100861.74
2018-07-07T09:39:37.580Z,100854.59
2018-07-07T09:42:05.267Z,100855.84
2018-07-07T09:44:32.868Z,100854.11
2018-07-07T09:47:00.407Z,100856.67
2018-07-07T09:49:27.945Z,100853.02
2018-07-07T09:51:55.553Z,100855.67
2018-07-07T09:54:23.084Z,100861.13
2018-07-07T09:56:50.863Z,100859.89
2018-07-07T09:59:18.377Z,100863.39
2018-07-07T10:01:45.953Z,100870.00
2018-07-07T10:04:13.566Z,100861.84
2018-07-07T10:06:41.155Z,100862.30
2018-07-07T10:09:08.696Z,100867.95
2018-07-07T10:11:36.270Z,100865.02
2018-07-07T10:14:03.893Z,100852.16
2018-07-07T10:16:31.457Z,100865.23
2018-07-07T10:18:59.065Z,100861.08
2018-07-07T10:21:26.600Z,100853.67
2018-07-07T10:23:54.145Z,100863.73
2018-07-07T10:26:21.708Z,100860.52
2018-07-07T10:28:49.215Z,100854.54
2018-07-07T10:31:16.830Z,100853.42
2018-07-07T10:33:44.434Z,100848.02
2018-07-07T10:36:11.981Z,100858.69
2018-07-07T10:38:39.543Z,100849.19
2018-07-07T10:41:07.216Z,100847.02
2018-07-07T10:43:34.827Z,100854.05
2018-07-07T10:46:02.508Z,100856.12
2018-07-07T10:48:30.122Z,100852.95
2018-07-07T10:50:57.784Z,100863.38
2018-07-07T10:53:25.410Z,100860.83
2018-07-07T10:55:53.037Z,100847.95
2018-07-07T10:58:20.717Z,100851.78
2018-07-07T11:00:48.368Z,100861.89
2018-07-07T11:03:15.994Z,100864.09
2018-07-07T11:05:43.632Z,100863.17
2018-07-07T11:08:11.208Z,100874.21
2018-07-07T11:10:38.912Z,100885.50
2018-07-07T11:13:06.505Z,100890.83
2018-07-07T11:15:34.140Z,100899.61
2018-07-07T11:18:01.823Z,100889.45
2018-07-07T11:20:29.519Z,100897.26
2018-07-07T11:22:57.127Z,100902.49
2018-07-07T11:25:24.798Z,100909.04
2018-07-07T11:27:52.380Z,100903.34
2018-07-07T11:30:20.026Z,100908.47
2018-07-07T11:32:47.694Z,100910.65
2018-07-07T11:35:15.277Z,100913.39
2018-07-07T11:37:43.058Z,100916.02
2018-07-07T11:40:10.758Z,100912.00
2018-07-07T11:42:38.380Z,100909.96
2018-07-07T11:45:05.987Z,100916.38
2018-07-07T11:47:33.735Z,100910.64
2018-07-07T11:50:01.473Z,100920.35
2018-07-07T11:52:29.080Z,100923.55
2018-07-07T11:54:56.724Z,100912.36
2018-07-07T11:57:24.383Z,100914.25
2018-07-07T11:59:52.007Z,100917.77
2018-07-07T12:02:19.628Z,100913.80
2018-07-07T12:04:47.303Z,100913.44
2018-07-07T12:07:14.952Z,100918.81
2018-07-07T12:09:42.567Z,100921.96
2018-07-07T12:12:10.189Z,100925.77
2018-07-07T12:14:37.828Z,100922.38
2018-07-07T12:17:05.590Z,100925.85
2018-07-07T12:19:33.203Z,100924.02
2018-07-07T12:22:00.852Z,100920.45
2018-07-07T12:24:28.648Z,100929.85
2018-07-07T12:26:56.263Z,100929.05
2018-07-07T12:29:23.935Z,100922.26
2018-07-07T12:31:51.584Z,100931.16
2018-07-07T12:34:19.186Z,100942.18
2018-07-07T12:36:46.896Z,100942.53
2018-07-07T12:39:14.443Z,100943.59
2018-07-07T12:41:54.131Z,100941.34
2018-07-07T12:44:21.744Z,100950.25
2018-07-07T12:46:49.556Z,100938.14
2018-07-07T12:49:17.238Z,100950.75
2018-07-07T12:51:45.185Z,100949.55
2018-07-07T12:54:12.826Z,100950.11
2018-07-07T12:56:40.423Z,100947.48
2018-07-07T12:59:08.058Z,100949.80
2018-07-07T13:01:35.666Z,100944.37
2018-07-07T13:04:03.306Z,100950.44
2018-07-07T13:06:30.923Z,100947.28
2018-07-07T13:08:58.593Z,100943.58
2018-07-07T13:11:26.216Z,100948.64
2018-07-07T13:13:53.940Z,100945.24
2018-07-07T13:16:21.584Z,100948.81
2018-07-07T13:18:49.311Z,100951.20
2018-07-07T13:21:16.965Z,100953.06
2018-07-07T13:23:44.648Z,100944.73
2018-07-07T13:26:12.347Z,100946.76
2018-07-07T13:28:39.985Z,100959.03
2018-07-07T13:31:07.647Z,100951.03
2018-07-07T13:33:35.294Z,100954.31
2018-07-07T13:36:02.986Z,100952.45
2018-07-07T13:38:35.100Z,100954.59
2018-07-07T13:41:03.198Z,100951.41
2018-07-07T13:43:30.812Z,100951.80
2018-07-07T13:45:58.427Z,100947.98
2018-07-07T13:48:26.083Z,100943.31
2018-07-07T13:50:53.700Z,100945.71
2018-07-07T13:53:21.363Z,100949.53
2018-07-07T13:55:49.020Z,100951.27
2018-07-07T13:58:16.683Z,100944.86
2018-07-07T14:00:44.303Z,100945.95
2018-07-07T14:03:11.970Z,100942.97
2018-07-07T14:05:39.584Z,100945.32
2018-07-07T14:08:07.195Z,100943.16
2018-07-07T14:10:34.855Z,100948.30
2018-07-07T14:13:02.445Z,100955.30
2018-07-07T14:15:30.049Z,100960.89
2018-07-07T14:17:57.688Z,100956.25
2018-07-07T14:20:25.931Z,100960.16
2018-07-07T14:22:53.506Z,100965.28
2018-07-07T14:25:21.143Z,100973.87
2018-07-07T14:27:48.757Z,100974.53
2018-07-07T14:30:16.465Z,100978.78
2018-07-07T14:32:44.239Z,100976.61
2018-07-07T14:35:11.811Z,100978.25
2018-07-07T14:37:39.528Z,100982.53
2018-07-07T14:40:07.224Z,100986.09
2018-07-07T14:42:49.437Z,100990.64
2018-07-07T14:45:36.470Z,100991.48
2018-07-07T14:48:04.691Z,100995.24
2018-07-07T14:50:32.487Z,100987.35
2018-07-07T14:53:00.087Z,100999.63
2018-07-07T14:55:28.441Z,100996.27
2018-07-07T14:57:56.318Z,100996.13
2018-07-07T15:00:27.693Z,100988.31
2018-07-07T15:02:56.369Z,100993.55
2018-07-07T15:05:24.076Z,100991.52
2018-07-07T15:07:51.771Z,100989.37
2018-07-07T15:10:19.447Z,100996.66
2018-07-07T15:12:47.706Z,100993.92
2018-07-07T15:15:15.674Z,100993.64
2018-07-07T15:17:44.171Z,100998.50
2018-07-07T15:20:11.896Z,100996.91
2018-07-07T15:22:39.661Z,101004.17
2018-07-07T15:25:07.769Z,101007.91
2018-07-07T15:27:35.674Z,101000.91
2018-07-07T15:30:03.482Z,101002.91
2018-07-07T15:32:31.165Z,101004.25
2018-07-07T15:34:58.794Z,101006.14
2018-07-07T15:37:26.379Z,101004.63
2018-07-07T15:39:53.927Z,101008.97
2018-07-07T15:42:21.561Z,101003.85
2018-07-07T15:44:49.176Z,101002.30
2018-07-07T15:47:16.791Z,101000.08
2018-07-07T15:49:44.612Z,101001.92
2018-07-07T15:52:12.232Z,101010.97
2018-07-07T15:54:39.807Z,101013.24
2018-07-07T15:57:07.578Z,101010.64
2018-07-07T15:59:35.283Z,101011.72
2018-07-07T16:02:02.908Z,101014.04
2018-07-07T16:04:30.524Z,101018.37
2018-07-07T16:06:58.187Z,101019.19
2018-07-07T16:09:25.815Z,101018.59
2018-07-07T16:11:53.470Z,101025.19
2018-07-07T16:14:21.788Z,101023.14
2018-07-07T16:16:49.422Z,101026.05
2018-07-07T16:19:17.196Z,101024.31
2018-07-07T16:21:44.794Z,101017.78
2018-07-07T16:24:12.399Z,101024.43
2018-07-07T16:26:40.044Z,101027.52
2018-07-07T16:29:07.640Z,101026.44
2018-07-07T16:31:35.242Z,101034.91
2018-07-07T16:34:02.891Z,101026.02
2018-07-07T16:36:30.508Z,101029.86
2018-07-07T16:38:58.164Z,101031.41
2018-07-07T16:41:26.025Z,101037.19
2018-07-07T16:43:53.759Z,101035.73
2018-07-07T16:46:21.576Z,101035.02
2018-07-07T16:48:49.317Z,101037.83
2018-07-07T16:51:17.023Z,101037.39
2018-07-07T16:53:45.636Z,101045.37
2018-07-07T16:56:13.430Z,101043.84
2018-07-07T16:58:41.170Z,101043.87
2018-07-07T17:01:08.887Z,101048.25
2018-07-07T17:03:37.224Z,101038.97
2018-07-07T17:06:04.987Z,101048.77
2018-07-07T17:08:32.651Z,101042.93
2018-07-07T17:11:00.577Z,101046.48
2018-07-07T17:13:28.307Z,101051.23
2018-07-07T17:15:55.974Z,101055.25
2018-07-07T17:18:24.664Z,101048.62
2018-07-07T17:20:52.367Z,101056.70
2018-07-07T17:23:20.093Z,101060.48
2018-07-07T17:25:48.156Z,101063.55
2018-07-07T17:28:15.828Z,101061.31
2018-07-07T17:30:43.527Z,101064.12
2018-07-07T17:33:11.272Z,101074.41
2018-07-07T17:35:38.979Z,101076.62
2018-07-07T17:38:06.749Z,101074.90
2018-07-07T17:40:35.131Z,101075.16
2018-07-07T17:43:02.871Z,101081.66
2018-07-07T17:45:31.040Z,101085.62
2018-07-07T17:47:59.258Z,101093.02
2018-07-07T17:50:26.943Z,101087.87
2018-07-07T17:52:54.668Z,101092.05
2018-07-07T17:55:23.307Z,101091.94
2018-07-07T17:57:51.023Z,101095.75
2018-07-07T18:00:18.739Z,101094.17
2018-07-07T18:02:46.450Z,101099.45
2018-07-07T18:05:14.128Z,101088.41
2018-07-07T18:07:41.783Z,101097.20
2018-07-07T18:10:09.406Z,101095.75
2018-07-07T18:12:37.034Z,101099.52
2018-07-07T18:15:05.352Z,101101.38
2018-07-07T18:17:32.930Z,101104.67
2018-07-07T18:20:00.628Z,101103.33
2018-07-07T18:22:28.351Z,101104.81
2018-07-07T18:24:56.000Z,101102.71
2018-07-07T18:27:23.636Z,101107.75
2018-07-07T18:29:51.227Z,101110.80
2018-07-07T18:32:18.815Z,101117.38
2018-07-07T18:34:46.399Z,101117.88
2018-07-07T18:37:13.991Z,101120.83
2018-07-07T18:39:41.684Z,101120.70
2018-07-07T18:42:09.287Z,101120.67
2018-07-07T18:44:36.847Z,101117.27
2018-07-07T18:47:04.606Z,101124.34
2018-07-07T18:49:32.231Z,101118.97
2018-07-07T18:51:59.995Z,101119.31
2018-07-07T18:54:27.559Z,101126.52
2018-07-07T18:56:55.212Z,101129.06
2018-07-07T18:59:22.799Z,101131.61
2018-07-07T19:01:50.507Z,101131.75
2018-07-07T19:04:18.202Z,101134.30
2018-07-07T19:06:45.784Z,101129.60
2018-07-07T19:09:13.446Z,101137.55
2018-07-07T19:11:41.071Z,101141.27
2018-07-07T19:14:08.624Z,101145.29
2018-07-07T19:16:36.203Z,101140.53
2018-07-07T19:19:03.856Z,101139.86
2018-07-07T19:21:37.014Z,101152.56
2018-07-07T19:24:10.135Z,101149.00
2018-07-07T19:26:43.379Z,101145.91
2018-07-07T19:29:11.183Z,101150.66
2018-07-07T19:31:44.493Z,101151.75
2018-07-07T19:34:17.798Z,101155.87
2018-07-07T19:36:50.851Z,101159.41
2018-07-07T19:39:18.472Z,101153.50
2018-07-07T19:41:46.105Z,101154.11
2018-07-07T19:44:13.687Z,101151.75
2018-07-07T19:46:41.355Z,101157.25
2018-07-07T19:49:08.979Z,101153.80
2018-07-07T19:51:36.619Z,101159.39
2018-07-07T19:54:04.307Z,101154.38
2018-07-07T19:56:31.955Z,101160.55
2018-07-07T19:58:59.514Z,101163.08
2018-07-07T20:01:27.168Z,101163.44
2018-07-07T20:03:54.767Z,101163.02
2018-07-07T20:06:22.391Z,101162.37
2018-07-07T20:08:50.119Z,101170.65
2018-07-07T20:11:17.862Z,101167.77
2018-07-07T20:13:45.823Z,101171.16
2018-07-07T20:16:20.394Z,101173.41
2018-07-07T20:19:08.815Z,101172.30
2018-07-07T20:21:48.343Z,101177.05
2018-07-07T20:24:17.422Z,101177.28
2018-07-07T20:26:50.802Z,101191.16
2018-07-07T20:29:18.631Z,101178.52
2018-07-07T20:31:49.420Z,101180.56
2018-07-07T20:34:19.734Z,101182.69
2018-07-07T20:36:47.441Z,101187.31
2018-07-07T20:39:15.176Z,101187.15
2018-07-07T20:41:42.886Z,101181.48
2018-07-07T20:44:11.490Z,101188.88
2018-07-07T20:46:39.259Z,101193.42
2018-07-07T20:49:06.990Z,101188.63
2018-07-07T20:51:35.759Z,101189.14
2018-07-07T20:54:03.514Z,101189.02
2018-07-07T20:56:31.201Z,101185.59
2018-07-07T20:58:59.378Z,101184.61
2018-07-07T21:01:27.160Z,101179.63
2018-07-07T21:03:54.942Z,101196.58
2018-07-07T21:06:22.611Z,101188.28
2018-07-07T21:08:50.441Z,101198.02
2018-07-07T21:11:18.162Z,101194.77
2018-07-07T21:13:46.827Z,101198.79
2018-07-07T21:16:14.496Z,101199.00
2018-07-07T21:18:42.232Z,101198.23
2018-07-07T21:21:10.027Z,101196.23
2018-07-07T21:23:38.485Z,101206.91
2018-07-07T21:26:06.213Z,101207.77
2018-07-07T21:28:33.995Z,101209.80
2018-07-07T21:31:01.803Z,101210.75
2018-07-07T21:33:29.560Z,101214.03
2018-07-07T21:35:57.745Z,101209.53
2018-07-07T21:38:25.432Z,101211.62
2018-07-07T21:40:53.163Z,101216.92
2018-07-07T21:43:20.847Z,101218.05
2018-07-07T21:45:49.563Z,101212.30
2018-07-07T21:48:17.232Z,101215.16
2018-07-07T21:50:44.948Z,101216.63
2018-07-07T21:53:12.617Z,101218.14
2018-07-07T21:55:40.309Z,101218.27
2018-07-07T21:58:13.571Z,101216.36
2018-07-07T22:00:58.329Z,101217.34
2018-07-07T22:03:31.563Z,101222.70
2018-07-07T22:06:04.950Z,101221.92
2018-07-07T22:08:32.622Z,101222.14
2018-07-07T22:11:00.367Z,101232.59
2018-07-07T22:13:28.518Z,101232.85
2018-07-07T22:15:56.235Z,101232.50
2018-07-07T22:18:23.945Z,101242.83
2018-07-07T22:21:03.493Z,101244.91
2018-07-07T22:23:31.139Z,101246.07
2018-07-07T22:25:59.100Z,101242.56
2018-07-07T22:28:26.747Z,101247.14
2018-07-07T22:30:54.495Z,101252.50
2018-07-07T22:33:23.936Z,101247.73
2018-07-07T22:35:57.074Z,101240.77
2018-07-07T22:38:30.288Z,101242.66
2018-07-07T22:40:58.471Z,101250.14
2018-07-07T22:43:26.527Z,101252.81
2018-07-07T22:45:54.291Z,101258.38
2018-07-07T22:48:23.201Z,101257.52
2018-07-07T22:50:50.927Z,101255.13
2018-07-07T22:53:19.252Z,101260.08
2018-07-07T22:55:46.992Z,101265.16
2018-07-07T22:58:14.975Z,101267.37
2018-07-07T23:00:42.775Z,101270.99
2018-07-07T23:03:11.861Z,101257.92
2018-07-07T23:05:39.875Z,101265.56
2018-07-07T23:08:08.005Z,101266.64
2018-07-07T23:10:36.342Z,101264.72
2018-07-07T23:13:04.101Z,101269.88
2018-07-07T23:15:31.775Z,101274.00
2018-07-07T23:17:59.905Z,101279.16
2018-07-07T23:20:27.607Z,101268.92
2018-07-07T23:22:55.640Z,101282.79
2018-07-07T23:25:23.408Z,101278.02
2018-07-07T23:27:51.434Z,101272.56
2018-07-07T23:30:19.801Z,101282.80
2018-07-07T23:32:48.008Z,101284.06
2018-07-07T23:35:16.105Z,101287.14
2018-07-07T23:37:43.741Z,101290.02
2018-07-07T23:40:11.877Z,101284.47
2018-07-07T23:42:40.129Z,101293.37
2018-07-07T23:45:08.957Z,101300.34
2018-07-07T23:47:36.691Z,101295.30
2018-07-07T23:50:05.798Z,101292.31
2018-07-07T23:55:08.000Z,101293.84
2018-07-07T23:57:36.189Z,101294.03
